sensor_id;sensor_type;location;lat;lon;timestamp;P1;durP1;ratioP1;P2;durP2;ratioP2
74707;SDS011;63360;50.104;8.074;2024-01-30T00:00:23;16.15;;;8.02;;
74707;SDS011;63360;50.104;8.074;2024-01-30T00:02:49;18.70;;;8.93;;
74707;SDS011;63360;50.104;8.074;2024-01-30T00:05:15;17.35;;;7.85;;
74707;SDS011;63360;50.104;8.074;2024-01-30T00:07:42;15.90;;;8.20;;
74707;SDS011;63360;50.104;8.074;2024-01-30T00:10:09;16.63;;;8.13;;
74707;SDS011;63360;50.104;8.074;2024-01-30T00:12:35;19.77;;;8.80;;
74707;SDS011;63360;50.104;8.074;2024-01-30T00:15:02;17.05;;;8.27;;
74707;SDS011;63360;50.104;8.074;2024-01-30T00:17:30;17.90;;;8.02;;
74707;SDS011;63360;50.104;8.074;2024-01-30T00:19:57;18.27;;;8.00;;
74707;SDS011;63360;50.104;8.074;2024-01-30T00:22:23;15.67;;;7.87;;
74707;SDS011;63360;50.104;8.074;2024-01-30T00:24:50;18.67;;;8.20;;
74707;SDS011;63360;50.104;8.074;2024-01-30T00:27:16;18.55;;;8.50;;
74707;SDS011;63360;50.104;8.074;2024-01-30T00:29:42;17.50;;;8.30;;
74707;SDS011;63360;50.104;8.074;2024-01-30T00:32:09;17.52;;;8.10;;
74707;SDS011;63360;50.104;8.074;2024-01-30T00:34:35;15.07;;;7.40;;
74707;SDS011;63360;50.104;8.074;2024-01-30T00:37:01;17.95;;;8.25;;
74707;SDS011;63360;50.104;8.074;2024-01-30T00:39:28;17.20;;;7.57;;
74707;SDS011;63360;50.104;8.074;2024-01-30T00:41:54;16.85;;;7.47;;
74707;SDS011;63360;50.104;8.074;2024-01-30T00:44:21;15.95;;;8.13;;
74707;SDS011;63360;50.104;8.074;2024-01-30T00:46:47;16.97;;;6.97;;
74707;SDS011;63360;50.104;8.074;2024-01-30T00:49:14;17.48;;;7.65;;
74707;SDS011;63360;50.104;8.074;2024-01-30T00:51:40;15.98;;;7.45;;
74707;SDS011;63360;50.104;8.074;2024-01-30T00:54:06;16.40;;;7.25;;
74707;SDS011;63360;50.104;8.074;2024-01-30T00:56:33;13.57;;;6.75;;
74707;SDS011;63360;50.104;8.074;2024-01-30T00:58:59;15.67;;;7.17;;
74707;SDS011;63360;50.104;8.074;2024-01-30T01:01:25;16.65;;;7.10;;
74707;SDS011;63360;50.104;8.074;2024-01-30T01:03:52;15.32;;;7.07;;
74707;SDS011;63360;50.104;8.074;2024-01-30T01:06:18;18.25;;;8.00;;
74707;SDS011;63360;50.104;8.074;2024-01-30T01:08:45;16.05;;;6.88;;
74707;SDS011;63360;50.104;8.074;2024-01-30T01:11:11;18.23;;;7.27;;
74707;SDS011;63360;50.104;8.074;2024-01-30T01:13:38;16.17;;;7.00;;
74707;SDS011;63360;50.104;8.074;2024-01-30T01:16:04;16.63;;;7.85;;
74707;SDS011;63360;50.104;8.074;2024-01-30T01:18:31;15.52;;;7.40;;
74707;SDS011;63360;50.104;8.074;2024-01-30T01:20:57;16.15;;;7.50;;
74707;SDS011;63360;50.104;8.074;2024-01-30T01:23:24;15.33;;;7.27;;
74707;SDS011;63360;50.104;8.074;2024-01-30T01:25:50;17.40;;;7.65;;
74707;SDS011;63360;50.104;8.074;2024-01-30T01:28:16;18.40;;;7.38;;
74707;SDS011;63360;50.104;8.074;2024-01-30T01:30:43;15.50;;;7.20;;
74707;SDS011;63360;50.104;8.074;2024-01-30T01:33:10;17.25;;;7.63;;
74707;SDS011;63360;50.104;8.074;2024-01-30T01:35:36;17.73;;;7.30;;
74707;SDS011;63360;50.104;8.074;2024-01-30T01:38:03;16.58;;;7.40;;
74707;SDS011;63360;50.104;8.074;2024-01-30T01:40:29;14.35;;;7.10;;
74707;SDS011;63360;50.104;8.074;2024-01-30T01:42:56;18.95;;;6.93;;
74707;SDS011;63360;50.104;8.074;2024-01-30T01:45:22;14.70;;;6.43;;
74707;SDS011;63360;50.104;8.074;2024-01-30T01:47:50;14.97;;;6.80;;
74707;SDS011;63360;50.104;8.074;2024-01-30T01:50:18;13.77;;;6.28;;
74707;SDS011;63360;50.104;8.074;2024-01-30T01:52:49;13.80;;;6.43;;
74707;SDS011;63360;50.104;8.074;2024-01-30T01:55:16;15.70;;;6.45;;
74707;SDS011;63360;50.104;8.074;2024-01-30T01:57:47;15.73;;;6.65;;
74707;SDS011;63360;50.104;8.074;2024-01-30T02:00:14;16.60;;;6.60;;
74707;SDS011;63360;50.104;8.074;2024-01-30T02:02:41;14.25;;;6.50;;
74707;SDS011;63360;50.104;8.074;2024-01-30T02:05:09;13.73;;;5.97;;
74707;SDS011;63360;50.104;8.074;2024-01-30T02:07:36;13.48;;;6.25;;
74707;SDS011;63360;50.104;8.074;2024-01-30T02:10:03;13.73;;;6.03;;
74707;SDS011;63360;50.104;8.074;2024-01-30T02:12:30;13.60;;;6.33;;
74707;SDS011;63360;50.104;8.074;2024-01-30T02:14:57;12.93;;;6.00;;
74707;SDS011;63360;50.104;8.074;2024-01-30T02:17:23;15.10;;;6.80;;
74707;SDS011;63360;50.104;8.074;2024-01-30T02:19:50;15.93;;;6.70;;
74707;SDS011;63360;50.104;8.074;2024-01-30T02:22:16;20.70;;;8.07;;
74707;SDS011;63360;50.104;8.074;2024-01-30T02:24:44;15.53;;;7.33;;
74707;SDS011;63360;50.104;8.074;2024-01-30T02:27:10;18.95;;;7.97;;
74707;SDS011;63360;50.104;8.074;2024-01-30T02:29:37;18.35;;;8.40;;
74707;SDS011;63360;50.104;8.074;2024-01-30T02:32:03;16.02;;;7.55;;
74707;SDS011;63360;50.104;8.074;2024-01-30T02:34:30;16.90;;;7.97;;
74707;SDS011;63360;50.104;8.074;2024-01-30T02:36:57;15.97;;;8.00;;
74707;SDS011;63360;50.104;8.074;2024-01-30T02:39:23;18.15;;;8.65;;
74707;SDS011;63360;50.104;8.074;2024-01-30T02:41:50;17.63;;;8.32;;
74707;SDS011;63360;50.104;8.074;2024-01-30T02:44:16;17.95;;;8.43;;
74707;SDS011;63360;50.104;8.074;2024-01-30T02:46:43;18.05;;;8.05;;
74707;SDS011;63360;50.104;8.074;2024-01-30T02:49:09;15.83;;;7.90;;
74707;SDS011;63360;50.104;8.074;2024-01-30T02:51:36;17.92;;;8.02;;
74707;SDS011;63360;50.104;8.074;2024-01-30T02:54:02;16.35;;;7.88;;
74707;SDS011;63360;50.104;8.074;2024-01-30T02:56:29;17.58;;;8.30;;
74707;SDS011;63360;50.104;8.074;2024-01-30T02:58:55;16.55;;;8.13;;
74707;SDS011;63360;50.104;8.074;2024-01-30T03:01:21;15.77;;;7.40;;
74707;SDS011;63360;50.104;8.074;2024-01-30T03:03:48;21.75;;;8.48;;
74707;SDS011;63360;50.104;8.074;2024-01-30T03:06:14;18.70;;;8.73;;
74707;SDS011;63360;50.104;8.074;2024-01-30T03:08:43;17.90;;;8.20;;
74707;SDS011;63360;50.104;8.074;2024-01-30T03:11:09;16.15;;;8.18;;
74707;SDS011;63360;50.104;8.074;2024-01-30T03:13:36;17.00;;;7.80;;
74707;SDS011;63360;50.104;8.074;2024-01-30T03:16:02;19.02;;;8.63;;
74707;SDS011;63360;50.104;8.074;2024-01-30T03:18:29;17.23;;;7.97;;
74707;SDS011;63360;50.104;8.074;2024-01-30T03:20:55;17.83;;;8.40;;
74707;SDS011;63360;50.104;8.074;2024-01-30T03:23:22;17.15;;;8.02;;
74707;SDS011;63360;50.104;8.074;2024-01-30T03:25:48;17.67;;;7.60;;
74707;SDS011;63360;50.104;8.074;2024-01-30T03:28:14;18.15;;;8.15;;
74707;SDS011;63360;50.104;8.074;2024-01-30T03:30:41;17.17;;;8.23;;
74707;SDS011;63360;50.104;8.074;2024-01-30T03:33:07;16.38;;;8.00;;
74707;SDS011;63360;50.104;8.074;2024-01-30T03:35:34;16.75;;;7.93;;
74707;SDS011;63360;50.104;8.074;2024-01-30T03:38:00;18.03;;;7.90;;
74707;SDS011;63360;50.104;8.074;2024-01-30T03:40:26;17.15;;;8.25;;
74707;SDS011;63360;50.104;8.074;2024-01-30T03:42:53;15.77;;;8.43;;
74707;SDS011;63360;50.104;8.074;2024-01-30T03:45:19;17.10;;;8.13;;
74707;SDS011;63360;50.104;8.074;2024-01-30T03:47:46;16.63;;;7.88;;
74707;SDS011;63360;50.104;8.074;2024-01-30T03:50:12;16.77;;;7.73;;
74707;SDS011;63360;50.104;8.074;2024-01-30T03:52:39;17.20;;;8.13;;
74707;SDS011;63360;50.104;8.074;2024-01-30T03:55:05;19.40;;;8.30;;
74707;SDS011;63360;50.104;8.074;2024-01-30T03:57:32;17.55;;;8.20;;
74707;SDS011;63360;50.104;8.074;2024-01-30T03:59:58;16.88;;;8.02;;
74707;SDS011;63360;50.104;8.074;2024-01-30T04:02:28;19.03;;;8.83;;
74707;SDS011;63360;50.104;8.074;2024-01-30T04:04:54;20.00;;;9.98;;
74707;SDS011;63360;50.104;8.074;2024-01-30T04:07:21;18.45;;;8.65;;
74707;SDS011;63360;50.104;8.074;2024-01-30T04:09:49;17.65;;;8.40;;
74707;SDS011;63360;50.104;8.074;2024-01-30T04:12:16;20.25;;;8.57;;
74707;SDS011;63360;50.104;8.074;2024-01-30T04:14:42;17.07;;;8.60;;
74707;SDS011;63360;50.104;8.074;2024-01-30T04:17:09;18.73;;;8.35;;
74707;SDS011;63360;50.104;8.074;2024-01-30T04:19:39;18.73;;;8.60;;
74707;SDS011;63360;50.104;8.074;2024-01-30T04:22:07;17.58;;;8.50;;
74707;SDS011;63360;50.104;8.074;2024-01-30T04:24:33;18.63;;;8.57;;
74707;SDS011;63360;50.104;8.074;2024-01-30T04:27:00;17.33;;;8.57;;
74707;SDS011;63360;50.104;8.074;2024-01-30T04:29:26;18.48;;;8.23;;
74707;SDS011;63360;50.104;8.074;2024-01-30T04:31:52;19.42;;;8.45;;
74707;SDS011;63360;50.104;8.074;2024-01-30T04:34:19;18.38;;;8.48;;
74707;SDS011;63360;50.104;8.074;2024-01-30T04:36:45;19.23;;;8.23;;
74707;SDS011;63360;50.104;8.074;2024-01-30T04:39:12;17.90;;;8.27;;
74707;SDS011;63360;50.104;8.074;2024-01-30T04:41:39;18.30;;;8.77;;
74707;SDS011;63360;50.104;8.074;2024-01-30T04:44:05;19.27;;;9.07;;
74707;SDS011;63360;50.104;8.074;2024-01-30T04:46:32;20.30;;;9.00;;
74707;SDS011;63360;50.104;8.074;2024-01-30T04:49:00;19.10;;;8.70;;
74707;SDS011;63360;50.104;8.074;2024-01-30T04:51:27;18.17;;;8.83;;
74707;SDS011;63360;50.104;8.074;2024-01-30T04:53:53;18.25;;;8.90;;
74707;SDS011;63360;50.104;8.074;2024-01-30T04:56:19;18.50;;;8.68;;
74707;SDS011;63360;50.104;8.074;2024-01-30T04:58:46;20.42;;;9.07;;
74707;SDS011;63360;50.104;8.074;2024-01-30T05:01:15;19.58;;;9.05;;
74707;SDS011;63360;50.104;8.074;2024-01-30T05:03:42;18.10;;;9.03;;
74707;SDS011;63360;50.104;8.074;2024-01-30T05:06:09;18.48;;;8.55;;
74707;SDS011;63360;50.104;8.074;2024-01-30T05:08:36;23.80;;;9.65;;
74707;SDS011;63360;50.104;8.074;2024-01-30T05:11:05;20.00;;;9.05;;
74707;SDS011;63360;50.104;8.074;2024-01-30T05:13:31;20.25;;;8.50;;
74707;SDS011;63360;50.104;8.074;2024-01-30T05:15:58;18.00;;;8.60;;
74707;SDS011;63360;50.104;8.074;2024-01-30T05:18:24;21.80;;;9.02;;
74707;SDS011;63360;50.104;8.074;2024-01-30T05:20:51;20.70;;;8.95;;
74707;SDS011;63360;50.104;8.074;2024-01-30T05:23:17;17.30;;;8.40;;
74707;SDS011;63360;50.104;8.074;2024-01-30T05:25:44;17.73;;;8.07;;
74707;SDS011;63360;50.104;8.074;2024-01-30T05:28:10;18.40;;;8.23;;
74707;SDS011;63360;50.104;8.074;2024-01-30T05:30:37;19.52;;;8.50;;
74707;SDS011;63360;50.104;8.074;2024-01-30T05:33:03;18.75;;;8.50;;
74707;SDS011;63360;50.104;8.074;2024-01-30T05:35:30;18.50;;;8.20;;
74707;SDS011;63360;50.104;8.074;2024-01-30T05:37:56;19.13;;;8.38;;
74707;SDS011;63360;50.104;8.074;2024-01-30T05:40:23;17.93;;;8.17;;
74707;SDS011;63360;50.104;8.074;2024-01-30T05:42:49;17.88;;;8.20;;
74707;SDS011;63360;50.104;8.074;2024-01-30T05:45:16;18.10;;;8.55;;
74707;SDS011;63360;50.104;8.074;2024-01-30T05:47:42;20.05;;;8.73;;
74707;SDS011;63360;50.104;8.074;2024-01-30T05:50:09;20.30;;;8.98;;
74707;SDS011;63360;50.104;8.074;2024-01-30T05:52:35;21.17;;;9.20;;
74707;SDS011;63360;50.104;8.074;2024-01-30T05:55:02;18.70;;;9.43;;
74707;SDS011;63360;50.104;8.074;2024-01-30T05:57:29;18.42;;;8.50;;
74707;SDS011;63360;50.104;8.074;2024-01-30T05:59:55;18.33;;;8.27;;
74707;SDS011;63360;50.104;8.074;2024-01-30T06:02:22;18.42;;;7.97;;
74707;SDS011;63360;50.104;8.074;2024-01-30T06:04:48;19.87;;;7.93;;
74707;SDS011;63360;50.104;8.074;2024-01-30T06:07:15;16.80;;;7.60;;
74707;SDS011;63360;50.104;8.074;2024-01-30T06:09:41;18.05;;;8.07;;
74707;SDS011;63360;50.104;8.074;2024-01-30T06:12:08;16.67;;;7.82;;
74707;SDS011;63360;50.104;8.074;2024-01-30T06:14:34;18.65;;;8.57;;
74707;SDS011;63360;50.104;8.074;2024-01-30T06:17:01;19.33;;;8.33;;
74707;SDS011;63360;50.104;8.074;2024-01-30T06:19:27;17.63;;;7.97;;
74707;SDS011;63360;50.104;8.074;2024-01-30T06:21:54;21.50;;;8.75;;
74707;SDS011;63360;50.104;8.074;2024-01-30T06:24:20;20.13;;;9.13;;
74707;SDS011;63360;50.104;8.074;2024-01-30T06:26:47;22.45;;;9.02;;
74707;SDS011;63360;50.104;8.074;2024-01-30T06:29:13;21.47;;;9.27;;
74707;SDS011;63360;50.104;8.074;2024-01-30T06:31:44;20.58;;;9.32;;
74707;SDS011;63360;50.104;8.074;2024-01-30T06:34:10;20.88;;;8.57;;
74707;SDS011;63360;50.104;8.074;2024-01-30T06:36:38;20.45;;;9.07;;
74707;SDS011;63360;50.104;8.074;2024-01-30T06:39:04;21.98;;;9.23;;
74707;SDS011;63360;50.104;8.074;2024-01-30T06:41:31;17.57;;;8.17;;
74707;SDS011;63360;50.104;8.074;2024-01-30T06:43:58;20.77;;;9.10;;
74707;SDS011;63360;50.104;8.074;2024-01-30T06:46:24;20.05;;;9.00;;
74707;SDS011;63360;50.104;8.074;2024-01-30T06:48:51;19.42;;;8.73;;
74707;SDS011;63360;50.104;8.074;2024-01-30T06:51:17;19.70;;;8.98;;
74707;SDS011;63360;50.104;8.074;2024-01-30T06:53:44;19.77;;;8.87;;
74707;SDS011;63360;50.104;8.074;2024-01-30T06:56:10;21.27;;;9.25;;
74707;SDS011;63360;50.104;8.074;2024-01-30T06:58:37;19.80;;;8.98;;
74707;SDS011;63360;50.104;8.074;2024-01-30T07:01:03;22.33;;;9.75;;
74707;SDS011;63360;50.104;8.074;2024-01-30T07:03:30;20.98;;;9.43;;
74707;SDS011;63360;50.104;8.074;2024-01-30T07:05:56;18.73;;;9.03;;
74707;SDS011;63360;50.104;8.074;2024-01-30T07:08:23;19.15;;;8.82;;
74707;SDS011;63360;50.104;8.074;2024-01-30T07:10:49;19.92;;;8.73;;
74707;SDS011;63360;50.104;8.074;2024-01-30T07:13:15;17.13;;;8.43;;
74707;SDS011;63360;50.104;8.074;2024-01-30T07:15:42;22.02;;;9.77;;
74707;SDS011;63360;50.104;8.074;2024-01-30T07:18:09;24.33;;;9.47;;
74707;SDS011;63360;50.104;8.074;2024-01-30T07:20:36;20.60;;;8.75;;
74707;SDS011;63360;50.104;8.074;2024-01-30T07:23:02;19.77;;;9.43;;
74707;SDS011;63360;50.104;8.074;2024-01-30T07:25:29;23.08;;;9.68;;
74707;SDS011;63360;50.104;8.074;2024-01-30T07:27:56;25.77;;;10.63;;
74707;SDS011;63360;50.104;8.074;2024-01-30T07:30:23;22.50;;;10.70;;
74707;SDS011;63360;50.104;8.074;2024-01-30T07:32:50;23.13;;;10.75;;
74707;SDS011;63360;50.104;8.074;2024-01-30T07:35:16;27.17;;;11.02;;
74707;SDS011;63360;50.104;8.074;2024-01-30T07:37:43;21.85;;;9.93;;
74707;SDS011;63360;50.104;8.074;2024-01-30T07:40:09;23.27;;;10.98;;
74707;SDS011;63360;50.104;8.074;2024-01-30T07:42:36;23.97;;;11.10;;
74707;SDS011;63360;50.104;8.074;2024-01-30T07:45:02;24.02;;;11.10;;
74707;SDS011;63360;50.104;8.074;2024-01-30T07:47:29;23.23;;;10.77;;
74707;SDS011;63360;50.104;8.074;2024-01-30T07:49:55;25.38;;;10.85;;
74707;SDS011;63360;50.104;8.074;2024-01-30T07:52:22;23.23;;;10.70;;
74707;SDS011;63360;50.104;8.074;2024-01-30T07:54:49;21.50;;;9.63;;
74707;SDS011;63360;50.104;8.074;2024-01-30T07:57:16;23.42;;;10.38;;
74707;SDS011;63360;50.104;8.074;2024-01-30T07:59:43;22.27;;;10.50;;
74707;SDS011;63360;50.104;8.074;2024-01-30T08:02:11;23.45;;;11.20;;
74707;SDS011;63360;50.104;8.074;2024-01-30T08:04:39;21.92;;;10.82;;
74707;SDS011;63360;50.104;8.074;2024-01-30T08:07:05;21.30;;;10.33;;
74707;SDS011;63360;50.104;8.074;2024-01-30T08:09:32;22.60;;;10.32;;
74707;SDS011;63360;50.104;8.074;2024-01-30T08:11:58;22.60;;;10.60;;
74707;SDS011;63360;50.104;8.074;2024-01-30T08:14:25;21.13;;;10.52;;
74707;SDS011;63360;50.104;8.074;2024-01-30T08:16:52;20.08;;;10.60;;
74707;SDS011;63360;50.104;8.074;2024-01-30T08:19:18;23.23;;;10.77;;
74707;SDS011;63360;50.104;8.074;2024-01-30T08:21:45;21.55;;;10.27;;
74707;SDS011;63360;50.104;8.074;2024-01-30T08:24:11;22.25;;;10.57;;
74707;SDS011;63360;50.104;8.074;2024-01-30T08:26:38;21.33;;;10.13;;
74707;SDS011;63360;50.104;8.074;2024-01-30T08:29:04;22.25;;;10.48;;
74707;SDS011;63360;50.104;8.074;2024-01-30T08:31:31;20.73;;;9.40;;
74707;SDS011;63360;50.104;8.074;2024-01-30T08:33:57;19.85;;;9.98;;
74707;SDS011;63360;50.104;8.074;2024-01-30T08:36:25;20.08;;;10.10;;
74707;SDS011;63360;50.104;8.074;2024-01-30T08:38:51;20.38;;;9.77;;
74707;SDS011;63360;50.104;8.074;2024-01-30T08:41:21;19.10;;;9.35;;
74707;SDS011;63360;50.104;8.074;2024-01-30T08:43:47;18.53;;;9.17;;
74707;SDS011;63360;50.104;8.074;2024-01-30T08:46:16;21.50;;;9.63;;
74707;SDS011;63360;50.104;8.074;2024-01-30T08:48:43;19.77;;;10.07;;
74707;SDS011;63360;50.104;8.074;2024-01-30T08:51:10;23.65;;;10.50;;
74707;SDS011;63360;50.104;8.074;2024-01-30T08:53:37;20.70;;;11.20;;
74707;SDS011;63360;50.104;8.074;2024-01-30T08:56:03;23.03;;;11.60;;
74707;SDS011;63360;50.104;8.074;2024-01-30T08:58:30;24.23;;;10.80;;
74707;SDS011;63360;50.104;8.074;2024-01-30T09:00:57;23.48;;;11.63;;
74707;SDS011;63360;50.104;8.074;2024-01-30T09:03:24;22.75;;;10.90;;
74707;SDS011;63360;50.104;8.074;2024-01-30T09:05:50;20.55;;;10.63;;
74707;SDS011;63360;50.104;8.074;2024-01-30T09:08:17;22.67;;;11.13;;
74707;SDS011;63360;50.104;8.074;2024-01-30T09:10:44;20.35;;;10.30;;
74707;SDS011;63360;50.104;8.074;2024-01-30T09:13:11;22.15;;;10.82;;
74707;SDS011;63360;50.104;8.074;2024-01-30T09:15:37;20.33;;;10.30;;
74707;SDS011;63360;50.104;8.074;2024-01-30T09:18:04;21.58;;;10.55;;
74707;SDS011;63360;50.104;8.074;2024-01-30T09:20:30;18.67;;;10.27;;
74707;SDS011;63360;50.104;8.074;2024-01-30T09:23:00;18.63;;;9.73;;
74707;SDS011;63360;50.104;8.074;2024-01-30T09:25:26;19.10;;;10.50;;
74707;SDS011;63360;50.104;8.074;2024-01-30T09:27:52;20.55;;;10.45;;
74707;SDS011;63360;50.104;8.074;2024-01-30T09:30:19;21.98;;;10.35;;
74707;SDS011;63360;50.104;8.074;2024-01-30T09:32:45;22.17;;;10.27;;
74707;SDS011;63360;50.104;8.074;2024-01-30T09:35:12;19.90;;;10.55;;
74707;SDS011;63360;50.104;8.074;2024-01-30T09:37:38;19.30;;;9.93;;
74707;SDS011;63360;50.104;8.074;2024-01-30T09:40:05;24.02;;;10.90;;
74707;SDS011;63360;50.104;8.074;2024-01-30T09:42:33;21.17;;;10.82;;
74707;SDS011;63360;50.104;8.074;2024-01-30T09:45:04;20.47;;;10.47;;
74707;SDS011;63360;50.104;8.074;2024-01-30T09:47:32;21.38;;;11.40;;
74707;SDS011;63360;50.104;8.074;2024-01-30T09:50:10;19.52;;;10.65;;
74707;SDS011;63360;50.104;8.074;2024-01-30T09:52:38;21.30;;;11.00;;
74707;SDS011;63360;50.104;8.074;2024-01-30T09:55:05;20.55;;;10.80;;
74707;SDS011;63360;50.104;8.074;2024-01-30T09:57:33;19.53;;;9.77;;
74707;SDS011;63360;50.104;8.074;2024-01-30T10:00:00;15.93;;;8.35;;
74707;SDS011;63360;50.104;8.074;2024-01-30T10:02:27;13.82;;;7.28;;
74707;SDS011;63360;50.104;8.074;2024-01-30T10:04:53;14.20;;;7.20;;
74707;SDS011;63360;50.104;8.074;2024-01-30T10:07:20;14.32;;;6.63;;
74707;SDS011;63360;50.104;8.074;2024-01-30T10:09:47;11.70;;;6.00;;
74707;SDS011;63360;50.104;8.074;2024-01-30T10:12:13;12.43;;;5.82;;
74707;SDS011;63360;50.104;8.074;2024-01-30T10:14:40;14.30;;;6.35;;
74707;SDS011;63360;50.104;8.074;2024-01-30T10:17:09;11.88;;;6.38;;
74707;SDS011;63360;50.104;8.074;2024-01-30T10:19:49;12.70;;;6.38;;
74707;SDS011;63360;50.104;8.074;2024-01-30T10:22:17;13.10;;;6.17;;
74707;SDS011;63360;50.104;8.074;2024-01-30T10:24:43;13.02;;;6.40;;
74707;SDS011;63360;50.104;8.074;2024-01-30T10:27:11;10.85;;;6.07;;
74707;SDS011;63360;50.104;8.074;2024-01-30T10:29:37;11.45;;;5.70;;
74707;SDS011;63360;50.104;8.074;2024-01-30T10:32:04;12.82;;;5.75;;
74707;SDS011;63360;50.104;8.074;2024-01-30T10:34:31;10.73;;;5.27;;
74707;SDS011;63360;50.104;8.074;2024-01-30T10:37:08;13.80;;;6.20;;
74707;SDS011;63360;50.104;8.074;2024-01-30T10:39:42;11.98;;;6.07;;
74707;SDS011;63360;50.104;8.074;2024-01-30T10:42:14;10.48;;;5.30;;
74707;SDS011;63360;50.104;8.074;2024-01-30T10:44:55;10.98;;;5.82;;
74707;SDS011;63360;50.104;8.074;2024-01-30T10:47:26;10.63;;;5.60;;
74707;SDS011;63360;50.104;8.074;2024-01-30T10:49:55;13.20;;;5.57;;
74707;SDS011;63360;50.104;8.074;2024-01-30T10:52:23;12.57;;;5.80;;
74707;SDS011;63360;50.104;8.074;2024-01-30T10:54:54;10.40;;;5.13;;
74707;SDS011;63360;50.104;8.074;2024-01-30T10:57:24;11.25;;;5.22;;
74707;SDS011;63360;50.104;8.074;2024-01-30T10:59:56;11.10;;;5.00;;
74707;SDS011;63360;50.104;8.074;2024-01-30T11:02:24;9.20;;;4.70;;
74707;SDS011;63360;50.104;8.074;2024-01-30T11:04:56;10.45;;;4.85;;
74707;SDS011;63360;50.104;8.074;2024-01-30T11:07:26;9.27;;;4.90;;
74707;SDS011;63360;50.104;8.074;2024-01-30T11:09:54;11.07;;;5.55;;
74707;SDS011;63360;50.104;8.074;2024-01-30T11:12:29;11.67;;;6.37;;
74707;SDS011;63360;50.104;8.074;2024-01-30T11:17:44;12.02;;;5.50;;
74707;SDS011;63360;50.104;8.074;2024-01-30T11:22:50;10.77;;;5.32;;
74707;SDS011;63360;50.104;8.074;2024-01-30T11:25:21;9.23;;;5.10;;
74707;SDS011;63360;50.104;8.074;2024-01-30T11:27:49;10.90;;;5.32;;
74707;SDS011;63360;50.104;8.074;2024-01-30T11:30:27;10.15;;;5.55;;
74707;SDS011;63360;50.104;8.074;2024-01-30T11:33:13;11.27;;;5.50;;
74707;SDS011;63360;50.104;8.074;2024-01-30T11:35:41;10.30;;;5.40;;
74707;SDS011;63360;50.104;8.074;2024-01-30T11:38:09;11.83;;;5.90;;
74707;SDS011;63360;50.104;8.074;2024-01-30T11:40:37;10.43;;;5.60;;
74707;SDS011;63360;50.104;8.074;2024-01-30T11:43:06;11.25;;;5.88;;
74707;SDS011;63360;50.104;8.074;2024-01-30T11:45:34;11.35;;;6.50;;
74707;SDS011;63360;50.104;8.074;2024-01-30T11:48:01;14.70;;;6.28;;
74707;SDS011;63360;50.104;8.074;2024-01-30T11:50:33;10.93;;;5.87;;
74707;SDS011;63360;50.104;8.074;2024-01-30T11:53:00;11.40;;;5.97;;
74707;SDS011;63360;50.104;8.074;2024-01-30T11:55:28;12.18;;;5.50;;
74707;SDS011;63360;50.104;8.074;2024-01-30T11:58:00;12.50;;;5.65;;
74707;SDS011;63360;50.104;8.074;2024-01-30T12:00:26;11.00;;;5.55;;
74707;SDS011;63360;50.104;8.074;2024-01-30T12:02:53;9.27;;;5.10;;
74707;SDS011;63360;50.104;8.074;2024-01-30T12:05:25;10.88;;;5.63;;
74707;SDS011;63360;50.104;8.074;2024-01-30T12:07:52;9.15;;;5.03;;
74707;SDS011;63360;50.104;8.074;2024-01-30T12:10:19;11.57;;;5.05;;
74707;SDS011;63360;50.104;8.074;2024-01-30T12:12:47;9.27;;;4.65;;
74707;SDS011;63360;50.104;8.074;2024-01-30T12:15:15;9.70;;;4.97;;
74707;SDS011;63360;50.104;8.074;2024-01-30T12:17:43;10.55;;;5.22;;
74707;SDS011;63360;50.104;8.074;2024-01-30T12:20:13;10.25;;;5.57;;
74707;SDS011;63360;50.104;8.074;2024-01-30T12:22:45;9.95;;;4.65;;
74707;SDS011;63360;50.104;8.074;2024-01-30T12:25:14;9.48;;;5.45;;
74707;SDS011;63360;50.104;8.074;2024-01-30T12:27:42;11.00;;;5.27;;
74707;SDS011;63360;50.104;8.074;2024-01-30T12:30:10;11.57;;;5.40;;
74707;SDS011;63360;50.104;8.074;2024-01-30T12:32:41;12.00;;;5.68;;
74707;SDS011;63360;50.104;8.074;2024-01-30T12:35:09;10.18;;;5.18;;
74707;SDS011;63360;50.104;8.074;2024-01-30T12:37:40;10.15;;;5.28;;
74707;SDS011;63360;50.104;8.074;2024-01-30T12:40:08;9.80;;;5.00;;
74707;SDS011;63360;50.104;8.074;2024-01-30T12:42:36;9.57;;;5.28;;
74707;SDS011;63360;50.104;8.074;2024-01-30T12:45:02;8.80;;;4.93;;
74707;SDS011;63360;50.104;8.074;2024-01-30T12:47:30;12.05;;;5.47;;
74707;SDS011;63360;50.104;8.074;2024-01-30T12:49:56;11.45;;;5.75;;
74707;SDS011;63360;50.104;8.074;2024-01-30T12:52:24;11.20;;;5.70;;
74707;SDS011;63360;50.104;8.074;2024-01-30T12:54:51;11.15;;;5.15;;
74707;SDS011;63360;50.104;8.074;2024-01-30T12:57:18;10.73;;;5.40;;
74707;SDS011;63360;50.104;8.074;2024-01-30T12:59:45;9.50;;;5.40;;
74707;SDS011;63360;50.104;8.074;2024-01-30T13:02:14;10.68;;;5.82;;
74707;SDS011;63360;50.104;8.074;2024-01-30T13:04:41;10.37;;;5.40;;
74707;SDS011;63360;50.104;8.074;2024-01-30T13:07:10;10.43;;;5.53;;
74707;SDS011;63360;50.104;8.074;2024-01-30T13:09:36;11.60;;;5.78;;
74707;SDS011;63360;50.104;8.074;2024-01-30T13:12:04;10.65;;;5.43;;
74707;SDS011;63360;50.104;8.074;2024-01-30T13:14:31;11.40;;;6.03;;
74707;SDS011;63360;50.104;8.074;2024-01-30T13:16:57;13.83;;;8.03;;
74707;SDS011;63360;50.104;8.074;2024-01-30T13:19:23;16.88;;;10.10;;
74707;SDS011;63360;50.104;8.074;2024-01-30T13:21:50;14.75;;;7.88;;
74707;SDS011;63360;50.104;8.074;2024-01-30T13:24:16;13.27;;;7.22;;
74707;SDS011;63360;50.104;8.074;2024-01-30T13:26:43;12.35;;;6.72;;
74707;SDS011;63360;50.104;8.074;2024-01-30T13:29:10;13.23;;;6.50;;
74707;SDS011;63360;50.104;8.074;2024-01-30T13:31:36;11.55;;;6.03;;
74707;SDS011;63360;50.104;8.074;2024-01-30T13:34:02;11.82;;;6.25;;
74707;SDS011;63360;50.104;8.074;2024-01-30T13:36:33;13.43;;;6.93;;
74707;SDS011;63360;50.104;8.074;2024-01-30T13:38:59;17.70;;;8.00;;
74707;SDS011;63360;50.104;8.074;2024-01-30T13:41:25;13.00;;;6.83;;
74707;SDS011;63360;50.104;8.074;2024-01-30T13:43:52;14.82;;;7.75;;
74707;SDS011;63360;50.104;8.074;2024-01-30T13:46:18;14.88;;;8.25;;
74707;SDS011;63360;50.104;8.074;2024-01-30T13:48:44;17.48;;;9.18;;
74707;SDS011;63360;50.104;8.074;2024-01-30T13:51:11;16.60;;;8.00;;
74707;SDS011;63360;50.104;8.074;2024-01-30T13:53:39;17.00;;;9.30;;
74707;SDS011;63360;50.104;8.074;2024-01-30T13:56:05;16.17;;;7.95;;
74707;SDS011;63360;50.104;8.074;2024-01-30T13:58:32;15.98;;;7.88;;
74707;SDS011;63360;50.104;8.074;2024-01-30T14:00:59;18.40;;;8.88;;
74707;SDS011;63360;50.104;8.074;2024-01-30T14:03:26;20.17;;;9.52;;
74707;SDS011;63360;50.104;8.074;2024-01-30T14:05:52;17.20;;;9.20;;
74707;SDS011;63360;50.104;8.074;2024-01-30T14:08:19;14.65;;;8.07;;
74707;SDS011;63360;50.104;8.074;2024-01-30T14:10:49;17.90;;;8.05;;
74707;SDS011;63360;50.104;8.074;2024-01-30T14:13:16;17.52;;;8.65;;
74707;SDS011;63360;50.104;8.074;2024-01-30T14:15:43;18.20;;;8.27;;
74707;SDS011;63360;50.104;8.074;2024-01-30T14:18:09;15.37;;;7.33;;
74707;SDS011;63360;50.104;8.074;2024-01-30T14:20:37;15.38;;;8.20;;
74707;SDS011;63360;50.104;8.074;2024-01-30T14:23:03;16.40;;;9.40;;
74707;SDS011;63360;50.104;8.074;2024-01-30T14:25:30;15.70;;;7.43;;
74707;SDS011;63360;50.104;8.074;2024-01-30T14:27:56;14.35;;;6.82;;
74707;SDS011;63360;50.104;8.074;2024-01-30T14:30:23;12.93;;;7.40;;
74707;SDS011;63360;50.104;8.074;2024-01-30T14:32:49;13.68;;;7.70;;
74707;SDS011;63360;50.104;8.074;2024-01-30T14:35:16;12.80;;;6.97;;
74707;SDS011;63360;50.104;8.074;2024-01-30T14:37:43;13.13;;;6.68;;